• Join FlightAware (Why Join?)
  • Login
  • US Flag 
02:30AM EDT


 

Airport Tracker/Info


-or-


 

Live Flight TrackerFlight Track Log ✈ EGF4086 ✈ 16-Apr-2013 ✈ KROC - KORD

Flight Track Log - Related Links

Times and Time Zones

All times are in EDT time to prevent confusion due to time zone crossing. See the EGF4086 flight status page for this flight to view local times or setup timezone preferences in your user account.

Time Position Orientation Groundspeed Altitude Reporting Facility
EDT Latitude Longitude Course Direction KTS MPH feet Rate Location/Type
05:35PM 43.1322 -77.6700 278° West 147 169 1,300  Level Cleveland Center
05:36PM 43.1661 -77.6911 336° Northwest 193 222 3,200 1,860 Climbing Cleveland Center
05:37PM 43.1333 -77.8743 270° West  Level FlightAware Approximate
05:37PM 43.1722 -77.7678 276° West 223 257 5,300  Level Cleveland Center
05:38PM 43.1453 -77.9786 280° West  Level FlightAware Approximate
05:38PM 43.1761 -77.8503 274° West 223 257 7,600  Level Cleveland Center
05:39PM 43.1550 -78.0834 278° West  Level FlightAware Approximate
05:39PM 43.1800 -77.9297 274° West 223 257 10,000  Level Cleveland Center
05:40PM 43.1655 -78.1881 278° West  Level FlightAware Approximate
05:40PM 43.1842 -78.0178 274° West 223 257 11,700  Level Cleveland Center
05:41PM 43.1903 -78.1117 275° West 231 266 12,900 1,080 Climbing Cleveland Center
05:42PM 43.1967 -78.2194 275° West 261 300 13,900 1,020 Climbing Cleveland Center
05:43PM 43.2011 -78.3333 273° West 287 330 15,000 1,020 Climbing Cleveland Center
05:44PM 43.2075 -78.4528 274° West 306 352 16,000 960 Climbing Cleveland Center
05:45PM 43.2056 -78.5725 269° West 312 359 17,000 900 Climbing Cleveland Center
05:46PM 43.1992 -78.6894 266° West 312 359 17,900 900 Climbing Cleveland Center
05:47PM 43.1928 -78.8119 266° West 317 365 18,800 900 Climbing Cleveland Center
05:48PM 43.1864 -78.9375 266° West 322 371 19,800 1,080 Climbing Cleveland Center
05:49PM 43.1667 -79.0667 258° West 330 380 20,900 1,080 Climbing Toronto Center
05:50PM 43.1667 -79.1833 270° West 330 380 21,900 900 Climbing Toronto Center
05:51PM 43.1500 -79.2833 257° West 330 380 22,800 960 Climbing Toronto Center
05:52PM 43.1500 -79.4333 270° West 330 380 23,900 960 Climbing Toronto Center
05:53PM 43.1333 -79.5500 259° West 330 380 24,800 900 Climbing Toronto Center
05:54PM 43.1333 -79.6833 270° West 320 368 25,800 960 Climbing Toronto Center
05:55PM 43.1167 -79.8000 259° West 320 368 26,800 960 Climbing Toronto Center
05:56PM 43.1167 -79.9333 270° West 320 368 27,800 960 Climbing Toronto Center
05:57PM 43.1000 -80.0500 259° West 310 357 28,800 960 Climbing Toronto Center
05:58PM 43.1000 -80.1500 270° West 310 357 29,800 900 Climbing Toronto Center
05:59PM 43.1000 -80.2667 270° West 310 357 30,700 960 Climbing Toronto Center
06:00PM 43.0833 -80.3833 259° West 310 357 31,800 600 Climbing Toronto Center
06:01PM 43.0833 -80.5000 270° West 320 368 32,000 60 Climbing Toronto Center
06:02PM 43.0667 -80.6333 260° West 340 391 32,000  Level Toronto Center
06:03PM 43.0667 -80.7667 270° West 350 403 32,000  Level Toronto Center
06:04PM 43.0333 -80.9167 253° West 350 403 32,000  Level Toronto Center
06:05PM 43.0333 -81.0167 270° West 350 403 32,000  Level Toronto Center
06:06PM 43.0167 -81.1667 261° West 350 403 32,000  Level Toronto Center
06:07PM 43.0167 -81.3000 270° West 350 403 32,000  Level Toronto Center
06:08PM 43.0167 -81.4333 270° West 350 403 32,000  Level Toronto Center
06:09PM 43.0167 -81.5500 270° West 360 414 32,000  Level Toronto Center
06:10PM 43.0167 -81.7000 270° West 360 414 32,000  Level Toronto Center
06:11PM 43.0167 -81.8167 270° West 360 414 32,000  Level Toronto Center
06:12PM 43.0000 -81.9833 262° West 360 414 32,000  Level Toronto Center
06:13PM 43.0000 -82.1000 270° West 360 414 32,000  Level Toronto Center
06:14PM 43.0000 -82.2500 270° West 360 414 32,000  Level Toronto Center
06:15PM 43.0000 -82.3667 270° West 360 414 32,000  Level Toronto Center
06:16PM 43.0000 -82.5333 270° West 360 414 32,000 -300 Level Toronto Center
06:17PM 42.9833 -82.6500 259° West 360 414 31,400 -660 Descending Toronto Center
06:17PM 43.0014 -82.6981 297° West 366 421 31,200 -960 Descending Cleveland Center
06:18PM 42.9967 -82.8342 267° West 366 421 30,200 -600 Descending Cleveland Center
06:19PM 42.9919 -82.9703 267° West 366 421 30,000 -120 Descending Cleveland Center
06:20PM 42.9889 -83.1094 268° West 366 421 30,000  Level Cleveland Center
06:21PM 42.9858 -83.2456 268° West 366 421 30,000  Level Cleveland Center
06:22PM 42.9783 -83.3842 266° West 366 421 30,000  Level Cleveland Center
06:23PM 42.9731 -83.5203 267° West 366 421 30,000  Level Cleveland Center
06:24PM 42.9697 -83.6447 268° West 366 421 30,000  Level Cleveland Center
06:26PM 42.9500 -83.9275 265° West 362 417 30,000  Level Chicago Center
06:27PM 42.9333 -84.0333 258° West 360 414 30,000  Level Toronto Center
06:27PM 42.9353 -84.0544 277° West 366 421 30,000  Level Cleveland Center
06:28PM 42.9206 -84.1925 262° West 366 421 30,000  Level Cleveland Center
06:29PM 42.9075 -84.3422 263° West 366 421 30,000  Level Cleveland Center
06:30PM 42.8947 -84.4778 263° West 370 426 30,000  Level Chicago Center
06:32PM 42.8814 -84.6161 263° West 369 425 30,000  Level Chicago Center
06:33PM 42.8642 -84.7819 262° West 368 423 30,000  Level Chicago Center
06:34PM 42.8497 -84.9214 262° West 371 427 30,000  Level Chicago Center
06:35PM 42.8347 -85.0600 262° West 371 427 30,000 -180 Level Chicago Center
06:36PM 42.8197 -85.2000 262° West 373 429 29,700 -840 Descending Chicago Center
06:37PM 42.8039 -85.3406 261° West 376 433 28,300 -1,440 Descending Chicago Center
06:38PM 42.7878 -85.4847 261° West 381 438 26,800 -1,560 Descending Chicago Center
06:39PM 42.7583 -85.6581 257° West 388 447 25,100 -1,500 Descending Chicago Center
06:40PM 42.7317 -85.8008 256° West 388 447 23,700 -1,380 Descending Chicago Center
06:41PM 42.7069 -85.9417 257° West 383 441 22,300 -1,440 Descending Chicago Center
06:42PM 42.6811 -86.0789 256° West 376 433 20,800 -1,140 Descending Chicago Center
06:43PM 42.6567 -86.2139 256° West 370 426 20,000 -420 Descending Chicago Center
06:44PM 42.6308 -86.3472 255° West 366 421 20,000 -540 Level Chicago Center
06:45PM 42.6069 -86.4814 256° West 365 420 19,000 -1,140 Descending Chicago Center
06:46PM 42.5819 -86.6106 255° West 356 410 17,700 -1,560 Descending Chicago Center
06:47PM 42.5536 -86.7600 256° West 343 395 15,800 -1,680 Descending Chicago Center
06:48PM 42.5206 -86.8783 249° West 337 388 14,300 -1,500 Descending Chicago Center
06:49PM 42.4875 -86.9953 249° West 334 384 12,800 -1,440 Descending Chicago Center
06:50PM 42.4544 -87.1114 249° West 330 380 11,400 -1,260 Descending Chicago Center
06:51PM 42.4217 -87.2308 250° West 338 389 10,300 -720 Descending Chicago Center
06:52PM 42.3897 -87.3500 250° West 339 390 10,000 -240 Descending Chicago Center
06:53PM 42.3556 -87.4728 249° West 324 373 9,900 -60 Descending Chicago Center
06:54PM 42.3061 -87.5700 236° Southwest 332 382 9,900  Level Chicago Center
06:55PM 42.2197 -87.6600 218° Southwest 330 380 9,900  Level Chicago Center
06:56PM 42.1486 -87.7336 218° Southwest 324 373 9,900 60 Level Chicago Center
06:57PM 42.1167 -87.7667 218° Southwest 274 315 10,000 -600 Climbing Chicago TRACON
06:58PM 42.0833 -87.8333 236° Southwest 239 275 9,100 -1,320 Descending Chicago TRACON
06:59PM 42.0667 -87.9333 257° West 255 293 7,400 -1,200 Descending Chicago TRACON
07:00PM 42.0667 -88.0167 270° West 206 237 6,600 -1,320 Descending Chicago TRACON
07:01PM 42.0500 -88.0833 251° West 237 273 4,800 -1,800 Descending Chicago TRACON